sensor_id;sensor_type;location;lat;lon;timestamp;P1;durP1;ratioP1;P2;durP2;ratioP2
2480;SDS011;57396;48.742;9.128;2023-04-08T00:00:33;14.60;;;12.33;;
2480;SDS011;57396;48.742;9.128;2023-04-08T00:02:59;16.47;;;13.57;;
2480;SDS011;57396;48.742;9.128;2023-04-08T00:05:25;17.50;;;12.97;;
2480;SDS011;57396;48.742;9.128;2023-04-08T00:07:51;17.00;;;12.70;;
2480;SDS011;57396;48.742;9.128;2023-04-08T00:10:16;17.80;;;13.50;;
2480;SDS011;57396;48.742;9.128;2023-04-08T00:12:42;17.77;;;13.10;;
2480;SDS011;57396;48.742;9.128;2023-04-08T00:15:07;15.40;;;12.80;;
2480;SDS011;57396;48.742;9.128;2023-04-08T00:17:33;16.20;;;13.00;;
2480;SDS011;57396;48.742;9.128;2023-04-08T00:19:58;18.50;;;12.80;;
2480;SDS011;57396;48.742;9.128;2023-04-08T00:22:24;16.40;;;12.80;;
2480;SDS011;57396;48.742;9.128;2023-04-08T00:24:50;16.73;;;12.53;;
2480;SDS011;57396;48.742;9.128;2023-04-08T00:27:15;14.80;;;12.93;;
2480;SDS011;57396;48.742;9.128;2023-04-08T00:29:40;14.80;;;12.27;;
2480;SDS011;57396;48.742;9.128;2023-04-08T00:32:06;15.90;;;12.33;;
2480;SDS011;57396;48.742;9.128;2023-04-08T00:34:31;13.50;;;10.87;;
2480;SDS011;57396;48.742;9.128;2023-04-08T00:36:57;13.77;;;11.63;;
2480;SDS011;57396;48.742;9.128;2023-04-08T00:39:23;15.70;;;12.87;;
2480;SDS011;57396;48.742;9.128;2023-04-08T00:41:48;15.60;;;12.03;;
2480;SDS011;57396;48.742;9.128;2023-04-08T00:44:14;14.80;;;11.27;;
2480;SDS011;57396;48.742;9.128;2023-04-08T00:46:39;12.70;;;10.90;;
2480;SDS011;57396;48.742;9.128;2023-04-08T00:49:05;15.83;;;11.13;;
2480;SDS011;57396;48.742;9.128;2023-04-08T00:51:31;12.50;;;10.27;;
2480;SDS011;57396;48.742;9.128;2023-04-08T00:53:57;13.60;;;11.70;;
2480;SDS011;57396;48.742;9.128;2023-04-08T00:56:24;13.00;;;10.60;;
2480;SDS011;57396;48.742;9.128;2023-04-08T00:58:50;13.07;;;10.87;;
2480;SDS011;57396;48.742;9.128;2023-04-08T01:01:29;11.30;;;10.00;;
2480;SDS011;57396;48.742;9.128;2023-04-08T01:04:12;14.37;;;10.97;;
2480;SDS011;57396;48.742;9.128;2023-04-08T01:09:12;9.93;;;8.93;;
2480;SDS011;57396;48.742;9.128;2023-04-08T01:11:40;11.00;;;9.73;;
2480;SDS011;57396;48.742;9.128;2023-04-08T01:14:09;13.83;;;11.20;;
2480;SDS011;57396;48.742;9.128;2023-04-08T01:16:39;10.70;;;9.57;;
2480;SDS011;57396;48.742;9.128;2023-04-08T01:19:06;10.23;;;9.10;;
2480;SDS011;57396;48.742;9.128;2023-04-08T01:21:32;13.83;;;9.70;;
2480;SDS011;57396;48.742;9.128;2023-04-08T01:24:08;12.07;;;9.23;;
2480;SDS011;57396;48.742;9.128;2023-04-08T01:26:38;12.17;;;10.33;;
2480;SDS011;57396;48.742;9.128;2023-04-08T01:29:04;11.53;;;10.10;;
2480;SDS011;57396;48.742;9.128;2023-04-08T01:31:30;11.50;;;9.97;;
2480;SDS011;57396;48.742;9.128;2023-04-08T01:33:56;11.23;;;10.00;;
2480;SDS011;57396;48.742;9.128;2023-04-08T01:36:24;10.33;;;9.23;;
2480;SDS011;57396;48.742;9.128;2023-04-08T01:38:50;11.00;;;9.80;;
2480;SDS011;57396;48.742;9.128;2023-04-08T01:41:16;11.37;;;9.43;;
2480;SDS011;57396;48.742;9.128;2023-04-08T01:43:43;13.40;;;9.90;;
2480;SDS011;57396;48.742;9.128;2023-04-08T01:46:09;10.77;;;9.57;;
2480;SDS011;57396;48.742;9.128;2023-04-08T01:48:36;10.63;;;9.30;;
2480;SDS011;57396;48.742;9.128;2023-04-08T01:51:01;11.30;;;9.63;;
2480;SDS011;57396;48.742;9.128;2023-04-08T01:53:28;10.50;;;9.40;;
2480;SDS011;57396;48.742;9.128;2023-04-08T01:55:57;11.30;;;9.63;;
2480;SDS011;57396;48.742;9.128;2023-04-08T01:58:27;10.20;;;9.10;;
2480;SDS011;57396;48.742;9.128;2023-04-08T02:00:57;11.23;;;9.60;;
2480;SDS011;57396;48.742;9.128;2023-04-08T02:03:23;14.07;;;10.87;;
2480;SDS011;57396;48.742;9.128;2023-04-08T02:05:49;12.57;;;10.40;;
2480;SDS011;57396;48.742;9.128;2023-04-08T02:08:15;15.37;;;11.03;;
2480;SDS011;57396;48.742;9.128;2023-04-08T02:10:40;14.00;;;10.50;;
2480;SDS011;57396;48.742;9.128;2023-04-08T02:13:06;12.23;;;10.30;;
2480;SDS011;57396;48.742;9.128;2023-04-08T02:15:33;12.07;;;10.47;;
2480;SDS011;57396;48.742;9.128;2023-04-08T02:18:02;13.70;;;10.50;;
2480;SDS011;57396;48.742;9.128;2023-04-08T02:20:42;12.87;;;10.50;;
2480;SDS011;57396;48.742;9.128;2023-04-08T02:23:16;14.17;;;10.80;;
2480;SDS011;57396;48.742;9.128;2023-04-08T02:25:44;15.60;;;11.20;;
2480;SDS011;57396;48.742;9.128;2023-04-08T02:28:10;17.43;;;11.40;;
2480;SDS011;57396;48.742;9.128;2023-04-08T02:30:37;17.70;;;11.67;;
2480;SDS011;57396;48.742;9.128;2023-04-08T02:33:06;12.60;;;10.13;;
2480;SDS011;57396;48.742;9.128;2023-04-08T02:35:32;15.03;;;10.43;;
2480;SDS011;57396;48.742;9.128;2023-04-08T02:37:58;12.43;;;9.90;;
2480;SDS011;57396;48.742;9.128;2023-04-08T02:40:30;12.87;;;10.90;;
2480;SDS011;57396;48.742;9.128;2023-04-08T02:42:57;14.53;;;11.67;;
2480;SDS011;57396;48.742;9.128;2023-04-08T02:45:26;13.53;;;10.50;;
2480;SDS011;57396;48.742;9.128;2023-04-08T02:47:52;16.87;;;10.40;;
2480;SDS011;57396;48.742;9.128;2023-04-08T02:50:18;13.73;;;10.17;;
2480;SDS011;57396;48.742;9.128;2023-04-08T02:52:43;14.47;;;10.73;;
2480;SDS011;57396;48.742;9.128;2023-04-08T02:55:09;12.70;;;10.67;;
2480;SDS011;57396;48.742;9.128;2023-04-08T02:57:35;13.43;;;10.70;;
2480;SDS011;57396;48.742;9.128;2023-04-08T03:00:02;16.10;;;11.23;;
2480;SDS011;57396;48.742;9.128;2023-04-08T03:02:28;13.87;;;11.03;;
2480;SDS011;57396;48.742;9.128;2023-04-08T03:04:53;14.87;;;10.47;;
2480;SDS011;57396;48.742;9.128;2023-04-08T03:07:19;15.07;;;11.10;;
2480;SDS011;57396;48.742;9.128;2023-04-08T03:09:44;15.33;;;11.00;;
2480;SDS011;57396;48.742;9.128;2023-04-08T03:12:10;16.13;;;11.00;;
2480;SDS011;57396;48.742;9.128;2023-04-08T03:14:35;13.57;;;10.53;;
2480;SDS011;57396;48.742;9.128;2023-04-08T03:17:01;13.27;;;10.30;;
2480;SDS011;57396;48.742;9.128;2023-04-08T03:19:26;13.93;;;9.87;;
2480;SDS011;57396;48.742;9.128;2023-04-08T03:21:52;12.73;;;9.73;;
2480;SDS011;57396;48.742;9.128;2023-04-08T03:24:17;12.50;;;9.27;;
2480;SDS011;57396;48.742;9.128;2023-04-08T03:26:43;12.90;;;9.20;;
2480;SDS011;57396;48.742;9.128;2023-04-08T03:29:08;12.73;;;9.43;;
2480;SDS011;57396;48.742;9.128;2023-04-08T03:31:34;15.13;;;9.50;;
2480;SDS011;57396;48.742;9.128;2023-04-08T03:33:59;14.23;;;9.40;;
2480;SDS011;57396;48.742;9.128;2023-04-08T03:36:25;11.33;;;8.97;;
2480;SDS011;57396;48.742;9.128;2023-04-08T03:38:50;13.27;;;9.80;;
2480;SDS011;57396;48.742;9.128;2023-04-08T03:41:16;15.60;;;10.03;;
2480;SDS011;57396;48.742;9.128;2023-04-08T03:43:41;14.20;;;10.33;;
2480;SDS011;57396;48.742;9.128;2023-04-08T03:46:07;13.10;;;10.17;;
2480;SDS011;57396;48.742;9.128;2023-04-08T03:48:32;14.10;;;10.30;;
2480;SDS011;57396;48.742;9.128;2023-04-08T03:50:58;15.00;;;10.83;;
2480;SDS011;57396;48.742;9.128;2023-04-08T03:53:23;14.77;;;10.07;;
2480;SDS011;57396;48.742;9.128;2023-04-08T03:55:49;15.87;;;10.47;;
2480;SDS011;57396;48.742;9.128;2023-04-08T03:58:17;15.73;;;10.60;;
2480;SDS011;57396;48.742;9.128;2023-04-08T04:00:42;18.60;;;12.50;;
2480;SDS011;57396;48.742;9.128;2023-04-08T04:03:07;16.70;;;11.40;;
2480;SDS011;57396;48.742;9.128;2023-04-08T04:05:34;15.93;;;11.30;;
2480;SDS011;57396;48.742;9.128;2023-04-08T04:08:01;15.50;;;10.77;;
2480;SDS011;57396;48.742;9.128;2023-04-08T04:10:26;30.27;;;16.60;;
2480;SDS011;57396;48.742;9.128;2023-04-08T04:12:51;18.83;;;12.90;;
2480;SDS011;57396;48.742;9.128;2023-04-08T04:15:17;15.73;;;10.50;;
2480;SDS011;57396;48.742;9.128;2023-04-08T04:17:42;14.30;;;10.10;;
2480;SDS011;57396;48.742;9.128;2023-04-08T04:20:08;16.10;;;10.63;;
2480;SDS011;57396;48.742;9.128;2023-04-08T04:22:34;13.20;;;9.90;;
2480;SDS011;57396;48.742;9.128;2023-04-08T04:24:59;11.60;;;9.00;;
2480;SDS011;57396;48.742;9.128;2023-04-08T04:27:25;13.30;;;8.53;;
2480;SDS011;57396;48.742;9.128;2023-04-08T04:29:50;12.20;;;8.80;;
2480;SDS011;57396;48.742;9.128;2023-04-08T04:32:15;12.20;;;8.47;;
2480;SDS011;57396;48.742;9.128;2023-04-08T04:34:41;13.43;;;9.27;;
2480;SDS011;57396;48.742;9.128;2023-04-08T04:37:08;14.30;;;9.63;;
2480;SDS011;57396;48.742;9.128;2023-04-08T04:39:33;16.13;;;10.00;;
2480;SDS011;57396;48.742;9.128;2023-04-08T04:41:59;17.77;;;10.73;;
2480;SDS011;57396;48.742;9.128;2023-04-08T04:44:24;18.77;;;11.83;;
2480;SDS011;57396;48.742;9.128;2023-04-08T04:46:50;13.63;;;10.53;;
2480;SDS011;57396;48.742;9.128;2023-04-08T04:49:15;16.50;;;11.87;;
2480;SDS011;57396;48.742;9.128;2023-04-08T04:51:41;15.60;;;11.90;;
2480;SDS011;57396;48.742;9.128;2023-04-08T04:54:06;19.53;;;12.23;;
2480;SDS011;57396;48.742;9.128;2023-04-08T04:56:32;14.67;;;11.47;;
2480;SDS011;57396;48.742;9.128;2023-04-08T04:58:57;16.37;;;12.07;;
2480;SDS011;57396;48.742;9.128;2023-04-08T05:01:22;16.60;;;12.63;;
2480;SDS011;57396;48.742;9.128;2023-04-08T05:03:48;14.93;;;11.77;;
2480;SDS011;57396;48.742;9.128;2023-04-08T05:06:13;16.20;;;12.13;;
2480;SDS011;57396;48.742;9.128;2023-04-08T05:08:39;16.23;;;12.10;;
2480;SDS011;57396;48.742;9.128;2023-04-08T05:11:08;15.53;;;11.40;;
2480;SDS011;57396;48.742;9.128;2023-04-08T05:13:34;15.50;;;11.70;;
2480;SDS011;57396;48.742;9.128;2023-04-08T05:15:59;17.33;;;11.37;;
2480;SDS011;57396;48.742;9.128;2023-04-08T05:18:25;15.83;;;12.37;;
2480;SDS011;57396;48.742;9.128;2023-04-08T05:20:50;16.10;;;12.00;;
2480;SDS011;57396;48.742;9.128;2023-04-08T05:23:16;19.80;;;12.30;;
2480;SDS011;57396;48.742;9.128;2023-04-08T05:25:41;17.00;;;12.83;;
2480;SDS011;57396;48.742;9.128;2023-04-08T05:28:07;18.87;;;13.00;;
2480;SDS011;57396;48.742;9.128;2023-04-08T05:30:33;16.20;;;12.30;;
2480;SDS011;57396;48.742;9.128;2023-04-08T05:32:58;25.80;;;13.20;;
2480;SDS011;57396;48.742;9.128;2023-04-08T05:35:24;21.37;;;14.20;;
2480;SDS011;57396;48.742;9.128;2023-04-08T05:37:49;21.57;;;13.90;;
2480;SDS011;57396;48.742;9.128;2023-04-08T05:40:15;17.40;;;13.70;;
2480;SDS011;57396;48.742;9.128;2023-04-08T05:42:40;21.67;;;14.40;;
2480;SDS011;57396;48.742;9.128;2023-04-08T05:45:06;19.40;;;14.33;;
2480;SDS011;57396;48.742;9.128;2023-04-08T05:47:32;17.60;;;13.10;;
2480;SDS011;57396;48.742;9.128;2023-04-08T05:49:57;21.67;;;14.53;;
2480;SDS011;57396;48.742;9.128;2023-04-08T05:52:23;19.37;;;13.37;;
2480;SDS011;57396;48.742;9.128;2023-04-08T05:54:48;16.97;;;13.37;;
2480;SDS011;57396;48.742;9.128;2023-04-08T05:57:14;33.90;;;18.13;;
2480;SDS011;57396;48.742;9.128;2023-04-08T05:59:40;34.83;;;17.90;;
2480;SDS011;57396;48.742;9.128;2023-04-08T06:02:06;20.67;;;14.13;;
2480;SDS011;57396;48.742;9.128;2023-04-08T06:04:31;18.47;;;13.00;;
2480;SDS011;57396;48.742;9.128;2023-04-08T06:06:57;15.37;;;11.57;;
2480;SDS011;57396;48.742;9.128;2023-04-08T06:09:27;14.83;;;11.57;;
2480;SDS011;57396;48.742;9.128;2023-04-08T06:11:52;14.50;;;11.60;;
2480;SDS011;57396;48.742;9.128;2023-04-08T06:14:18;14.97;;;11.60;;
2480;SDS011;57396;48.742;9.128;2023-04-08T06:16:45;17.53;;;11.70;;
2480;SDS011;57396;48.742;9.128;2023-04-08T06:19:10;12.03;;;10.50;;
2480;SDS011;57396;48.742;9.128;2023-04-08T06:21:36;11.97;;;10.60;;
2480;SDS011;57396;48.742;9.128;2023-04-08T06:24:01;13.27;;;10.47;;
2480;SDS011;57396;48.742;9.128;2023-04-08T06:26:27;12.80;;;10.80;;
2480;SDS011;57396;48.742;9.128;2023-04-08T06:28:53;13.67;;;11.27;;
2480;SDS011;57396;48.742;9.128;2023-04-08T06:31:18;14.70;;;11.50;;
2480;SDS011;57396;48.742;9.128;2023-04-08T06:33:44;14.27;;;11.40;;
2480;SDS011;57396;48.742;9.128;2023-04-08T06:36:09;13.13;;;10.80;;
2480;SDS011;57396;48.742;9.128;2023-04-08T06:38:37;16.10;;;11.90;;
2480;SDS011;57396;48.742;9.128;2023-04-08T06:41:03;14.43;;;11.43;;
2480;SDS011;57396;48.742;9.128;2023-04-08T06:43:32;14.37;;;12.30;;
2480;SDS011;57396;48.742;9.128;2023-04-08T06:45:58;13.10;;;11.20;;
2480;SDS011;57396;48.742;9.128;2023-04-08T06:48:24;15.03;;;11.70;;
2480;SDS011;57396;48.742;9.128;2023-04-08T06:50:57;12.77;;;10.47;;
2480;SDS011;57396;48.742;9.128;2023-04-08T06:53:25;14.03;;;10.13;;
2480;SDS011;57396;48.742;9.128;2023-04-08T06:55:52;12.57;;;10.80;;
2480;SDS011;57396;48.742;9.128;2023-04-08T06:58:17;11.30;;;9.13;;
2480;SDS011;57396;48.742;9.128;2023-04-08T07:00:43;15.57;;;10.77;;
2480;SDS011;57396;48.742;9.128;2023-04-08T07:03:08;12.87;;;10.80;;
2480;SDS011;57396;48.742;9.128;2023-04-08T07:05:35;13.00;;;9.20;;
2480;SDS011;57396;48.742;9.128;2023-04-08T07:08:01;11.77;;;8.90;;
2480;SDS011;57396;48.742;9.128;2023-04-08T07:10:26;10.23;;;9.10;;
2480;SDS011;57396;48.742;9.128;2023-04-08T07:12:52;11.80;;;9.90;;
2480;SDS011;57396;48.742;9.128;2023-04-08T07:15:18;12.20;;;9.90;;
2480;SDS011;57396;48.742;9.128;2023-04-08T07:17:43;15.73;;;11.90;;
2480;SDS011;57396;48.742;9.128;2023-04-08T07:20:09;17.47;;;12.37;;
2480;SDS011;57396;48.742;9.128;2023-04-08T07:22:35;18.50;;;12.80;;
2480;SDS011;57396;48.742;9.128;2023-04-08T07:25:00;22.10;;;14.77;;
2480;SDS011;57396;48.742;9.128;2023-04-08T07:27:27;20.60;;;15.67;;
2480;SDS011;57396;48.742;9.128;2023-04-08T07:29:52;16.10;;;13.23;;
2480;SDS011;57396;48.742;9.128;2023-04-08T07:32:21;18.30;;;13.50;;
2480;SDS011;57396;48.742;9.128;2023-04-08T07:34:46;16.37;;;12.10;;
2480;SDS011;57396;48.742;9.128;2023-04-08T07:37:12;15.97;;;12.23;;
2480;SDS011;57396;48.742;9.128;2023-04-08T07:39:37;17.40;;;12.67;;
2480;SDS011;57396;48.742;9.128;2023-04-08T07:42:03;17.73;;;14.20;;
2480;SDS011;57396;48.742;9.128;2023-04-08T07:44:28;18.63;;;13.80;;
2480;SDS011;57396;48.742;9.128;2023-04-08T07:46:54;16.47;;;12.80;;
2480;SDS011;57396;48.742;9.128;2023-04-08T07:49:19;21.00;;;15.23;;
2480;SDS011;57396;48.742;9.128;2023-04-08T07:51:45;14.97;;;12.13;;
2480;SDS011;57396;48.742;9.128;2023-04-08T07:54:10;17.80;;;13.13;;
2480;SDS011;57396;48.742;9.128;2023-04-08T07:56:41;20.30;;;13.00;;
2480;SDS011;57396;48.742;9.128;2023-04-08T07:59:08;19.07;;;14.67;;
2480;SDS011;57396;48.742;9.128;2023-04-08T08:01:34;17.67;;;13.30;;
2480;SDS011;57396;48.742;9.128;2023-04-08T08:04:00;16.40;;;12.60;;
2480;SDS011;57396;48.742;9.128;2023-04-08T08:06:25;16.40;;;12.80;;
2480;SDS011;57396;48.742;9.128;2023-04-08T08:08:53;14.27;;;12.07;;
2480;SDS011;57396;48.742;9.128;2023-04-08T08:11:19;17.00;;;13.33;;
2480;SDS011;57396;48.742;9.128;2023-04-08T08:13:46;19.50;;;12.67;;
2480;SDS011;57396;48.742;9.128;2023-04-08T08:16:11;14.83;;;12.17;;
2480;SDS011;57396;48.742;9.128;2023-04-08T08:18:37;14.07;;;11.30;;
2480;SDS011;57396;48.742;9.128;2023-04-08T08:21:04;13.83;;;11.90;;
2480;SDS011;57396;48.742;9.128;2023-04-08T08:23:29;15.70;;;12.67;;
2480;SDS011;57396;48.742;9.128;2023-04-08T08:25:59;17.87;;;12.40;;
2480;SDS011;57396;48.742;9.128;2023-04-08T08:28:25;16.53;;;12.07;;
2480;SDS011;57396;48.742;9.128;2023-04-08T08:30:51;13.87;;;10.47;;
2480;SDS011;57396;48.742;9.128;2023-04-08T08:33:16;15.33;;;12.87;;
2480;SDS011;57396;48.742;9.128;2023-04-08T08:35:42;15.43;;;12.47;;
2480;SDS011;57396;48.742;9.128;2023-04-08T08:38:07;15.50;;;13.23;;
2480;SDS011;57396;48.742;9.128;2023-04-08T08:40:33;15.30;;;12.43;;
2480;SDS011;57396;48.742;9.128;2023-04-08T08:42:59;15.20;;;12.50;;
2480;SDS011;57396;48.742;9.128;2023-04-08T08:45:25;15.07;;;12.60;;
2480;SDS011;57396;48.742;9.128;2023-04-08T08:47:51;15.03;;;12.33;;
2480;SDS011;57396;48.742;9.128;2023-04-08T08:50:16;15.60;;;12.87;;
2480;SDS011;57396;48.742;9.128;2023-04-08T08:52:49;15.87;;;12.53;;
2480;SDS011;57396;48.742;9.128;2023-04-08T08:55:17;13.90;;;12.33;;
2480;SDS011;57396;48.742;9.128;2023-04-08T08:57:43;15.00;;;11.90;;
2480;SDS011;57396;48.742;9.128;2023-04-08T09:00:09;17.03;;;13.00;;
2480;SDS011;57396;48.742;9.128;2023-04-08T09:02:35;16.53;;;13.30;;
2480;SDS011;57396;48.742;9.128;2023-04-08T09:05:01;15.37;;;12.53;;
2480;SDS011;57396;48.742;9.128;2023-04-08T09:07:28;14.63;;;12.40;;
2480;SDS011;57396;48.742;9.128;2023-04-08T09:09:59;15.40;;;12.60;;
2480;SDS011;57396;48.742;9.128;2023-04-08T09:12:25;14.60;;;12.43;;
2480;SDS011;57396;48.742;9.128;2023-04-08T09:15:05;15.33;;;13.17;;
2480;SDS011;57396;48.742;9.128;2023-04-08T09:17:35;13.00;;;11.60;;
2480;SDS011;57396;48.742;9.128;2023-04-08T09:20:06;14.77;;;12.63;;
2480;SDS011;57396;48.742;9.128;2023-04-08T09:25:33;14.43;;;12.83;;
2480;SDS011;57396;48.742;9.128;2023-04-08T09:27:59;15.97;;;13.57;;
2480;SDS011;57396;48.742;9.128;2023-04-08T09:30:26;17.23;;;13.37;;
2480;SDS011;57396;48.742;9.128;2023-04-08T09:32:53;18.43;;;11.40;;
2480;SDS011;57396;48.742;9.128;2023-04-08T09:35:20;15.17;;;13.03;;
2480;SDS011;57396;48.742;9.128;2023-04-08T09:37:46;15.40;;;13.60;;
2480;SDS011;57396;48.742;9.128;2023-04-08T09:40:12;17.90;;;13.20;;
2480;SDS011;57396;48.742;9.128;2023-04-08T09:42:40;14.37;;;12.87;;
2480;SDS011;57396;48.742;9.128;2023-04-08T09:45:09;22.57;;;15.97;;
2480;SDS011;57396;48.742;9.128;2023-04-08T09:47:43;26.90;;;22.67;;
2480;SDS011;57396;48.742;9.128;2023-04-08T09:50:32;19.67;;;15.80;;
2480;SDS011;57396;48.742;9.128;2023-04-08T09:53:04;18.83;;;14.07;;
2480;SDS011;57396;48.742;9.128;2023-04-08T09:55:43;17.10;;;13.73;;
2480;SDS011;57396;48.742;9.128;2023-04-08T09:58:16;14.27;;;12.30;;
2480;SDS011;57396;48.742;9.128;2023-04-08T10:00:46;15.97;;;12.07;;
2480;SDS011;57396;48.742;9.128;2023-04-08T10:05:42;23.43;;;14.37;;
2480;SDS011;57396;48.742;9.128;2023-04-08T10:08:09;15.53;;;13.40;;
2480;SDS011;57396;48.742;9.128;2023-04-08T10:10:35;14.17;;;11.67;;
2480;SDS011;57396;48.742;9.128;2023-04-08T10:13:03;16.13;;;12.43;;
2480;SDS011;57396;48.742;9.128;2023-04-08T10:15:32;15.87;;;13.10;;
2480;SDS011;57396;48.742;9.128;2023-04-08T10:22:58;14.33;;;12.93;;
2480;SDS011;57396;48.742;9.128;2023-04-08T10:25:27;17.60;;;13.37;;
2480;SDS011;57396;48.742;9.128;2023-04-08T10:28:44;15.47;;;13.20;;
2480;SDS011;57396;48.742;9.128;2023-04-08T10:30:47;13.77;;;12.03;;
2480;SDS011;57396;48.742;9.128;2023-04-08T10:33:16;13.83;;;12.43;;
2480;SDS011;57396;48.742;9.128;2023-04-08T10:35:47;12.80;;;11.50;;
2480;SDS011;57396;48.742;9.128;2023-04-08T10:38:14;14.50;;;12.83;;
2480;SDS011;57396;48.742;9.128;2023-04-08T10:40:41;14.30;;;12.17;;
2480;SDS011;57396;48.742;9.128;2023-04-08T10:43:10;17.73;;;13.43;;
2480;SDS011;57396;48.742;9.128;2023-04-08T10:45:37;13.87;;;11.83;;
2480;SDS011;57396;48.742;9.128;2023-04-08T10:48:21;14.93;;;12.77;;
2480;SDS011;57396;48.742;9.128;2023-04-08T10:50:57;14.33;;;12.70;;
2480;SDS011;57396;48.742;9.128;2023-04-08T10:53:33;16.80;;;12.50;;
2480;SDS011;57396;48.742;9.128;2023-04-08T10:56:05;16.93;;;12.73;;
2480;SDS011;57396;48.742;9.128;2023-04-08T10:58:52;16.53;;;12.30;;
2480;SDS011;57396;48.742;9.128;2023-04-08T11:01:20;14.20;;;11.43;;
2480;SDS011;57396;48.742;9.128;2023-04-08T11:03:45;16.80;;;12.40;;
2480;SDS011;57396;48.742;9.128;2023-04-08T11:06:11;16.60;;;13.30;;
2480;SDS011;57396;48.742;9.128;2023-04-08T11:08:36;18.13;;;13.10;;
2480;SDS011;57396;48.742;9.128;2023-04-08T11:11:02;17.57;;;12.33;;
2480;SDS011;57396;48.742;9.128;2023-04-08T11:13:38;20.40;;;12.13;;
2480;SDS011;57396;48.742;9.128;2023-04-08T11:16:05;14.90;;;12.03;;
2480;SDS011;57396;48.742;9.128;2023-04-08T11:18:32;17.30;;;13.00;;
2480;SDS011;57396;48.742;9.128;2023-04-08T11:20:58;14.27;;;12.67;;
2480;SDS011;57396;48.742;9.128;2023-04-08T11:23:24;19.50;;;15.90;;
2480;SDS011;57396;48.742;9.128;2023-04-08T11:25:50;16.13;;;12.73;;
2480;SDS011;57396;48.742;9.128;2023-04-08T11:28:16;19.53;;;14.10;;
2480;SDS011;57396;48.742;9.128;2023-04-08T11:30:42;15.80;;;13.07;;
2480;SDS011;57396;48.742;9.128;2023-04-08T11:33:07;18.10;;;11.83;;
2480;SDS011;57396;48.742;9.128;2023-04-08T11:35:33;13.40;;;11.77;;
2480;SDS011;57396;48.742;9.128;2023-04-08T11:37:59;13.50;;;11.70;;
2480;SDS011;57396;48.742;9.128;2023-04-08T11:40:24;16.30;;;13.00;;
2480;SDS011;57396;48.742;9.128;2023-04-08T11:42:50;15.60;;;13.30;;
2480;SDS011;57396;48.742;9.128;2023-04-08T11:45:18;13.40;;;11.63;;
2480;SDS011;57396;48.742;9.128;2023-04-08T11:47:45;16.10;;;13.20;;
2480;SDS011;57396;48.742;9.128;2023-04-08T11:50:11;15.30;;;13.70;;
2480;SDS011;57396;48.742;9.128;2023-04-08T11:52:40;14.87;;;12.10;;
2480;SDS011;57396;48.742;9.128;2023-04-08T11:55:10;15.80;;;14.10;;
2480;SDS011;57396;48.742;9.128;2023-04-08T11:57:36;14.67;;;12.77;;
2480;SDS011;57396;48.742;9.128;2023-04-08T12:00:05;15.77;;;13.47;;
2480;SDS011;57396;48.742;9.128;2023-04-08T12:02:31;16.30;;;11.63;;
2480;SDS011;57396;48.742;9.128;2023-04-08T12:04:57;14.43;;;12.87;;
2480;SDS011;57396;48.742;9.128;2023-04-08T12:07:22;14.83;;;12.50;;
2480;SDS011;57396;48.742;9.128;2023-04-08T12:09:47;15.40;;;12.53;;
2480;SDS011;57396;48.742;9.128;2023-04-08T12:12:13;17.10;;;13.70;;
2480;SDS011;57396;48.742;9.128;2023-04-08T12:14:39;16.60;;;12.70;;
2480;SDS011;57396;48.742;9.128;2023-04-08T12:17:04;15.47;;;12.80;;
2480;SDS011;57396;48.742;9.128;2023-04-08T12:19:29;14.60;;;12.47;;
2480;SDS011;57396;48.742;9.128;2023-04-08T12:21:55;15.73;;;12.97;;
2480;SDS011;57396;48.742;9.128;2023-04-08T12:24:20;18.53;;;13.30;;
2480;SDS011;57396;48.742;9.128;2023-04-08T12:26:46;28.43;;;18.27;;
2480;SDS011;57396;48.742;9.128;2023-04-08T12:29:11;18.77;;;13.50;;
2480;SDS011;57396;48.742;9.128;2023-04-08T12:31:37;23.30;;;14.40;;
2480;SDS011;57396;48.742;9.128;2023-04-08T12:34:02;17.03;;;14.37;;
2480;SDS011;57396;48.742;9.128;2023-04-08T12:36:28;13.93;;;11.60;;
2480;SDS011;57396;48.742;9.128;2023-04-08T12:38:53;15.10;;;12.00;;
2480;SDS011;57396;48.742;9.128;2023-04-08T12:41:19;16.70;;;12.40;;
2480;SDS011;57396;48.742;9.128;2023-04-08T12:43:44;15.00;;;12.60;;
2480;SDS011;57396;48.742;9.128;2023-04-08T12:46:10;17.30;;;13.27;;
2480;SDS011;57396;48.742;9.128;2023-04-08T12:48:35;17.80;;;14.00;;
2480;SDS011;57396;48.742;9.128;2023-04-08T12:51:01;16.67;;;12.50;;
2480;SDS011;57396;48.742;9.128;2023-04-08T12:53:27;15.00;;;13.30;;
2480;SDS011;57396;48.742;9.128;2023-04-08T12:55:52;16.57;;;13.07;;
2480;SDS011;57396;48.742;9.128;2023-04-08T12:58:21;14.70;;;13.10;;
2480;SDS011;57396;48.742;9.128;2023-04-08T13:00:47;14.00;;;12.30;;
2480;SDS011;57396;48.742;9.128;2023-04-08T13:03:13;17.27;;;13.03;;
2480;SDS011;57396;48.742;9.128;2023-04-08T13:05:41;23.20;;;12.77;;
2480;SDS011;57396;48.742;9.128;2023-04-08T13:08:06;14.03;;;11.60;;
2480;SDS011;57396;48.742;9.128;2023-04-08T13:10:32;13.80;;;12.13;;
2480;SDS011;57396;48.742;9.128;2023-04-08T13:12:57;14.63;;;12.50;;
2480;SDS011;57396;48.742;9.128;2023-04-08T13:15:23;15.50;;;12.33;;
2480;SDS011;57396;48.742;9.128;2023-04-08T13:17:48;14.27;;;11.87;;
2480;SDS011;57396;48.742;9.128;2023-04-08T13:20:14;13.90;;;12.40;;
2480;SDS011;57396;48.742;9.128;2023-04-08T13:22:39;12.23;;;10.93;;
2480;SDS011;57396;48.742;9.128;2023-04-08T13:25:05;13.33;;;11.57;;
2480;SDS011;57396;48.742;9.128;2023-04-08T13:27:31;13.77;;;11.63;;
2480;SDS011;57396;48.742;9.128;2023-04-08T13:29:57;16.93;;;13.57;;
2480;SDS011;57396;48.742;9.128;2023-04-08T13:32:22;15.30;;;12.87;;
2480;SDS011;57396;48.742;9.128;2023-04-08T13:34:48;13.40;;;11.23;;
2480;SDS011;57396;48.742;9.128;2023-04-08T13:37:13;14.73;;;12.37;;
2480;SDS011;57396;48.742;9.128;2023-04-08T13:39:38;16.90;;;12.23;;
2480;SDS011;57396;48.742;9.128;2023-04-08T13:42:04;13.00;;;11.60;;
2480;SDS011;57396;48.742;9.128;2023-04-08T13:44:29;13.33;;;11.93;;
2480;SDS011;57396;48.742;9.128;2023-04-08T13:46:57;14.00;;;11.67;;
2480;SDS011;57396;48.742;9.128;2023-04-08T13:49:22;12.93;;;11.53;;
2480;SDS011;57396;48.742;9.128;2023-04-08T13:51:48;14.83;;;12.33;;
2480;SDS011;57396;48.742;9.128;2023-04-08T13:54:13;14.90;;;12.13;;
2480;SDS011;57396;48.742;9.128;2023-04-08T13:56:39;13.37;;;12.00;;
2480;SDS011;57396;48.742;9.128;2023-04-08T13:59:04;12.90;;;10.93;;
2480;SDS011;57396;48.742;9.128;2023-04-08T14:01:30;13.10;;;11.50;;
2480;SDS011;57396;48.742;9.128;2023-04-08T14:03:55;15.27;;;11.40;;
2480;SDS011;57396;48.742;9.128;2023-04-08T14:06:21;13.73;;;12.20;;
2480;SDS011;57396;48.742;9.128;2023-04-08T14:08:46;24.30;;;11.83;;
2480;SDS011;57396;48.742;9.128;2023-04-08T14:11:11;13.17;;;11.60;;
2480;SDS011;57396;48.742;9.128;2023-04-08T14:13:37;13.07;;;11.67;;
2480;SDS011;57396;48.742;9.128;2023-04-08T14:16:02;14.10;;;12.13;;
2480;SDS011;57396;48.742;9.128;2023-04-08T14:18:28;12.30;;;10.93;;
2480;SDS011;57396;48.742;9.128;2023-04-08T14:20:54;19.50;;;16.57;;
2480;SDS011;57396;48.742;9.128;2023-04-08T14:23:20;16.13;;;14.40;;
2480;SDS011;57396;48.742;9.128;2023-04-08T14:25:45;41.37;;;30.43;;
2480;SDS011;57396;48.742;9.128;2023-04-08T14:28:11;18.03;;;14.40;;
2480;SDS011;57396;48.742;9.128;2023-04-08T14:30:36;20.20;;;12.80;;
2480;SDS011;57396;48.742;9.128;2023-04-08T14:33:02;16.67;;;13.30;;
2480;SDS011;57396;48.742;9.128;2023-04-08T14:35:29;19.47;;;14.50;;
2480;SDS011;57396;48.742;9.128;2023-04-08T14:37:54;14.40;;;12.70;;
2480;SDS011;57396;48.742;9.128;2023-04-08T14:40:20;17.90;;;14.30;;
2480;SDS011;57396;48.742;9.128;2023-04-08T14:42:46;15.73;;;13.80;;
2480;SDS011;57396;48.742;9.128;2023-04-08T14:45:14;14.03;;;12.50;;